Time;durP1;ratioP1;P1;durP2;ratioP2;P2;SDS_P1;SDS_P2;PMS_P1;PMS_P2;Temp;Humidity;BMP_temperature;BMP_pressure;BME280_temperature;BME280_humidity;BME280_pressure;Samples;Min_cycle;Max_cycle;Signal;HPM_P1;HPM_P2
2024/02/29 00:09:24;;;;;;;47.60;18.67;;;4.30;99.90;;;;;;4917478;29;20035;-88
2024/02/29 00:12:51;;;;;;;49.17;18.00;;;4.30;99.90;;;;;;4916151;29;20029;-89
2024/02/29 00:33:35;;;;;;;35.03;16.08;;;4.20;99.90;;;;;;4795197;29;20046;-83
2024/02/29 03:08:00;;;;;;;46.53;18.50;;;3.90;99.90;;;;;;654535;22;20292;-92
2024/02/29 03:10:26;;;;;;;49.83;19.45;;;4.90;99.90;;;;;;5047616;28;20033;-89
2024/02/29 03:12:52;;;;;;;52.65;19.88;;;3.90;99.90;;;;;;5033286;28;20203;-88
2024/02/29 03:15:18;;;;;;;50.63;19.20;;;4.20;99.90;;;;;;5067503;28;20036;-88
2024/02/29 03:17:44;;;;;;;47.58;19.15;;;3.70;99.90;;;;;;5074339;28;20104;-88
2024/02/29 03:20:13;;;;;;;58.83;22.58;;;;;;;;;;5082696;28;20032;-88
2024/02/29 03:22:39;;;;;;;51.65;20.70;;;3.80;99.90;;;;;;5084125;28;20097;-89
2024/02/29 03:25:05;;;;;;;49.35;19.90;;;;;;;;;;5066570;28;20143;-89
2024/02/29 03:27:32;;;;;;;46.83;18.38;;;3.80;99.90;;;;;;5067752;28;20039;-88
2024/02/29 03:30:00;;;;;;;55.63;19.83;;;4.70;99.90;;;;;;5079198;28;20017;-88
2024/02/29 03:32:27;;;;;;;47.40;18.08;;;;;;;;;;5066383;28;20017;-88
2024/02/29 03:34:53;;;;;;;48.70;20.88;;;3.80;99.90;;;;;;5066011;28;20032;-88
2024/02/29 03:37:18;;;;;;;50.60;18.98;;;3.80;99.90;;;;;;5065919;28;20021;-87
2024/02/29 03:39:44;;;;;;;50.40;18.13;;;;;;;;;;5060518;28;20037;-89
2024/02/29 03:42:11;;;;;;;39.47;18.05;;;3.70;99.90;;;;;;5082816;28;20049;-87
2024/02/29 03:44:37;;;;;;;44.42;17.63;;;6.80;99.90;;;;;;5071000;28;20024;-88
2024/02/29 03:47:05;;;;;;;41.20;16.90;;;4.50;99.90;;;;;;5068875;28;20028;-89
2024/02/29 03:49:31;;;;;;;45.80;18.10;;;3.70;99.90;;;;;;5066920;28;20047;-88
2024/02/29 03:51:56;;;;;;;44.30;18.38;;;3.50;99.90;;;;;;5063475;28;20052;-90
2024/02/29 03:54:22;;;;;;;46.30;17.58;;;3.60;99.90;;;;;;5066901;28;20016;-89
2024/02/29 03:56:48;;;;;;;41.03;16.77;;;3.60;99.90;;;;;;5066595;28;20032;-90
2024/02/29 03:59:13;;;;;;;40.67;16.50;;;4.50;99.90;;;;;;5074080;28;20067;-90
2024/02/29 04:01:39;;;;;;;32.67;14.35;;;2.30;99.90;;;;;;5061417;28;20032;-88
2024/02/29 04:04:08;;;;;;;33.05;15.27;;;3.90;99.90;;;;;;5067780;28;20088;-88
2024/02/29 04:06:34;;;;;;;36.67;15.38;;;;;;;;;;5062115;28;20045;-89
2024/02/29 04:09:01;;;;;;;37.65;15.57;;;;;;;;;;5071311;28;20045;-89
2024/02/29 04:11:28;;;;;;;38.05;16.20;;;3.90;99.90;;;;;;5070005;28;20047;-89
2024/02/29 04:13:54;;;;;;;38.95;15.32;;;6.90;99.90;;;;;;5067897;28;20013;-89
2024/02/29 04:16:20;;;;;;;35.25;15.82;;;6.40;99.90;;;;;;5065221;28;20032;-89
2024/02/29 04:18:46;;;;;;;39.53;15.93;;;6.80;99.90;;;;;;5069434;28;20033;-89
2024/02/29 04:21:12;;;;;;;37.97;16.10;;;;;;;;;;5060162;28;20036;-90
2024/02/29 04:23:38;;;;;;;31.90;14.85;;;;;;;;;;5058391;28;20037;-89
2024/02/29 04:26:04;;;;;;;33.00;14.50;;;4.00;99.90;;;;;;5080675;28;20144;-88
2024/02/29 04:28:30;;;;;;;36.05;15.48;;;;;;;;;;5081399;28;20013;-86
2024/02/29 04:30:56;;;;;;;34.55;15.45;;;;;;;;;;5063382;28;20044;-88
2024/02/29 04:33:22;;;;;;;36.78;15.48;;;;;;;;;;5060534;28;20028;-89
2024/02/29 04:35:48;;;;;;;33.67;13.95;;;;;;;;;;5068145;28;20024;-89
2024/02/29 04:38:14;;;;;;;31.02;14.23;;;;;;;;;;5086819;28;20016;-88
2024/02/29 04:40:40;;;;;;;32.97;14.05;;;3.80;99.90;;;;;;5064031;28;20029;-89
2024/02/29 04:43:08;;;;;;;30.50;14.65;;;3.60;99.90;;;;;;5080310;28;20043;-88
2024/02/29 04:45:35;;;;;;;31.48;14.23;;;;;;;;;;5069105;28;20026;-87
2024/02/29 04:48:01;;;;;;;32.88;15.48;;;;;;;;;;5079951;28;20043;-87
2024/02/29 04:50:27;;;;;;;28.70;12.60;;;;;;;;;;5080938;28;20029;-90
2024/02/29 04:52:53;;;;;;;34.00;14.98;;;;;;;;;;5079139;28;20040;-88
2024/02/29 04:55:19;;;;;;;33.50;15.82;;;;;;;;;;5061848;28;20020;-87
2024/02/29 04:57:45;;;;;;;34.60;15.20;;;;;;;;;;5065342;28;20033;-85
2024/02/29 05:00:13;;;;;;;35.60;16.50;;;;;;;;;;5078278;28;20028;-88
2024/02/29 05:02:39;;;;;;;39.08;16.02;;;;;;;;;;5057631;28;20082;-86
2024/02/29 05:05:06;;;;;;;41.40;16.15;;;;;;;;;;5052305;28;20580;-89
2024/02/29 05:07:32;;;;;;;43.13;16.75;;;;;;;;;;5059768;28;20021;-88
2024/02/29 05:09:58;;;;;;;43.80;17.25;;;;;;;;;;5058264;28;20016;-88
2024/02/29 05:12:26;;;;;;;38.70;16.48;;;;;;;;;;5065551;28;20093;-88
2024/02/29 05:14:53;;;;;;;38.83;16.77;;;;;;;;;;5055397;28;20462;-87
2024/02/29 05:17:19;;;;;;;40.97;17.30;;;;;;;;;;5061319;28;20095;-88
2024/02/29 05:19:45;;;;;;;36.72;15.23;;;3.40;99.90;;;;;;5061319;28;20017;-87
2024/02/29 05:22:13;;;;;;;34.30;15.55;;;5.70;99.90;;;;;;5063003;28;20048;-88
2024/02/29 05:24:39;;;;;;;31.75;14.70;;;;;;;;;;5066480;28;20250;-89
2024/02/29 05:27:05;;;;;;;32.17;14.48;;;3.40;99.90;;;;;;5062610;28;20009;-89
2024/02/29 05:29:31;;;;;;;28.88;13.35;;;;;;;;;;5078445;28;20024;-89
2024/02/29 05:31:57;;;;;;;29.83;13.68;;;;;;;;;;5064511;28;20035;-89
2024/02/29 05:34:23;;;;;;;31.15;13.77;;;;;;;;;;5067034;28;20042;-89
2024/02/29 05:36:49;;;;;;;30.70;13.43;;;;;;;;;;5065911;28;20562;-90
2024/02/29 05:39:16;;;;;;;34.17;14.45;;;;;;;;;;5059772;28;20037;-88
2024/02/29 05:41:42;;;;;;;29.95;13.57;;;;;;;;;;5054625;28;20053;-89
2024/02/29 05:44:08;;;;;;;33.15;15.00;;;;;;;;;;5070708;28;20564;-89
2024/02/29 05:46:35;;;;;;;28.83;12.52;;;;;;;;;;5086643;28;20504;-89
2024/02/29 05:49:01;;;;;;;30.13;13.35;;;;;;;;;;5063659;28;20044;-88
2024/02/29 05:51:32;;;;;;;33.10;14.60;;;3.10;99.90;;;;;;5084922;28;20082;-87
2024/02/29 05:53:58;;;;;;;34.15;14.23;;;;;;;;;;5068987;28;20746;-88
2024/02/29 05:56:24;;;;;;;36.45;13.88;;;;;;;;;;5084172;28;20047;-91
2024/02/29 05:58:50;;;;;;;36.08;13.77;;;;;;;;;;5066123;28;20037;-88
2024/02/29 06:01:19;;;;;;;32.88;14.68;;;3.10;99.90;;;;;;5081559;28;20035;-90
2024/02/29 06:03:47;;;;;;;34.25;14.15;;;3.10;99.90;;;;;;5071600;23;20127;-83
2024/02/29 06:06:21;;;;;;;31.17;13.63;;;3.00;99.90;;;;;;5080143;28;20046;-85
2024/02/29 06:09:19;;;;;;;36.75;15.10;;;3.10;99.90;;;;;;5081785;28;20024;-86
2024/02/29 06:11:45;;;;;;;30.60;13.85;;;;;;;;;;5067721;28;20117;-83
2024/02/29 06:14:12;;;;;;;32.53;14.30;;;;;;;;;;5063288;28;20024;-82
2024/02/29 06:17:06;;;;;;;32.63;14.45;;;3.80;99.90;;;;;;5079756;28;20071;-82
2024/02/29 06:20:20;;;;;;;35.88;15.07;;;3.10;99.90;;;;;;5059651;28;20419;-81
2024/02/29 06:23:17;;;;;;;35.58;14.93;;;3.10;99.90;;;;;;5013808;28;20041;-80
2024/02/29 06:25:44;;;;;;;34.55;15.52;;;;;;;;;;5028244;28;20018;-82
2024/02/29 06:31:09;;;;;;;42.47;14.20;;;3.10;99.90;;;;;;5055310;28;20038;-81
2024/02/29 06:33:36;;;;;;;31.40;13.32;;;;;;;;;;5051053;28;20075;-83
2024/02/29 06:36:05;;;;;;;34.05;13.50;;;2.90;99.90;;;;;;5052570;28;20037;-80
2024/02/29 06:38:32;;;;;;;30.33;13.13;;;;;;;;;;5072842;28;20208;-86
2024/02/29 06:40:59;;;;;;;34.80;15.10;;;;;;;;;;5070369;28;20043;-83
2024/02/29 06:43:25;;;;;;;65.10;19.50;;;;;;;;;;5081196;28;20050;-82
2024/02/29 06:45:51;;;;;;;29.85;12.65;;;;;;;;;;5048582;28;20033;-83
2024/02/29 06:48:18;;;;;;;34.88;13.68;;;3.00;99.90;;;;;;5054102;28;20032;-80
2024/02/29 06:50:46;;;;;;;33.42;13.38;;;2.90;99.90;;;;;;5058704;28;20048;-83
2024/02/29 06:53:15;;;;;;;36.28;14.77;;;;;;;;;;5071371;28;20029;-85
2024/02/29 06:55:44;;;;;;;36.67;14.98;;;2.90;99.90;;;;;;5073283;28;20044;-85
2024/02/29 06:58:12;;;;;;;34.75;14.00;;;;;;;;;;5066761;28;20025;-83
2024/02/29 07:00:39;;;;;;;30.38;14.60;;;2.90;99.90;;;;;;5082689;28;20024;-82
2024/02/29 07:03:06;;;;;;;31.08;13.60;;;;;;;;;;5060198;28;20033;-85
2024/02/29 07:05:32;;;;;;;36.28;14.98;;;;;;;;;;5077771;28;20009;-82
2024/02/29 07:07:58;;;;;;;37.22;14.30;;;;;;;;;;5059626;28;20035;-82
2024/02/29 07:10:24;;;;;;;35.90;15.38;;;3.10;99.90;;;;;;5068621;28;20055;-81
2024/02/29 07:12:50;;;;;;;35.35;14.98;;;3.10;99.90;;;;;;5048182;28;20029;-82
2024/02/29 07:15:16;;;;;;;42.03;16.88;;;;;;;;;;5056429;28;20118;-82
2024/02/29 07:17:42;;;;;;;39.95;16.10;;;;;;;;;;5075492;28;20009;-85
2024/02/29 07:20:10;;;;;;;41.28;16.73;;;2.90;99.90;;;;;;5069244;28;20053;-83
2024/02/29 07:22:41;;;;;;;38.42;15.05;;;3.00;99.90;;;;;;5050105;28;20036;-82
2024/02/29 07:25:08;;;;;;;41.47;16.08;;;;;;;;;;5056692;28;20063;-83
2024/02/29 07:27:37;;;;;;;44.20;16.58;;;3.00;99.90;;;;;;5067060;28;20056;-81
2024/02/29 07:30:03;;;;;;;47.28;17.17;;;5.30;99.90;;;;;;5050523;28;20025;-81
2024/02/29 07:32:29;;;;;;;35.72;14.57;;;3.00;99.90;;;;;;5057411;28;20036;-85
2024/02/29 07:34:55;;;;;;;42.10;16.80;;;;;;;;;;5073374;28;20035;-81
2024/02/29 07:37:21;;;;;;;43.17;16.92;;;3.10;99.90;;;;;;5052744;28;20037;-80
2024/02/29 07:39:47;;;;;;;50.00;16.20;;;3.80;99.90;;;;;;5053235;28;20071;-81
2024/02/29 07:42:13;;;;;;;41.85;15.88;;;;;;;;;;5052065;28;20037;-83
2024/02/29 07:44:39;;;;;;;41.22;16.27;;;3.20;99.90;;;;;;5053098;28;20060;-83
2024/02/29 07:47:04;;;;;;;48.97;17.55;;;3.10;99.90;;;;;;5058725;28;20370;-80
2024/02/29 07:49:31;;;;;;;39.08;14.75;;;4.00;99.90;;;;;;5055292;28;20025;-82
2024/02/29 07:51:58;;;;;;;44.08;16.02;;;;;;;;;;5070968;28;20028;-81
2024/02/29 07:54:24;;;;;;;46.15;17.13;;;;;;;;;;5060970;28;20024;-82
2024/02/29 07:56:50;;;;;;;43.63;15.88;;;;;;;;;;5064008;28;20029;-80
2024/02/29 07:59:15;;;;;;;45.67;16.17;;;3.10;99.90;;;;;;5056009;28;20082;-82
2024/02/29 08:01:41;;;;;;;42.60;15.40;;;7.30;99.90;;;;;;5050621;28;20028;-80
2024/02/29 08:04:07;;;;;;;40.70;15.98;;;;;;;;;;5058440;28;20028;-81
2024/02/29 08:06:33;;;;;;;36.85;14.65;;;;;;;;;;5059981;28;20039;-81
2024/02/29 08:08:59;;;;;;;36.17;15.18;;;3.20;99.90;;;;;;5070668;28;20029;-82
2024/02/29 08:11:28;;;;;;;36.35;15.00;;;;;;;;;;5078153;28;20028;-82
2024/02/29 08:13:55;;;;;;;35.70;14.32;;;;;;;;;;5054237;28;20056;-81
2024/02/29 08:16:20;;;;;;;39.25;14.50;;;3.20;99.90;;;;;;5064233;28;20092;-85
2024/02/29 08:18:47;;;;;;;35.15;12.18;;;;;;;;;;5063581;28;20044;-81
2024/02/29 08:21:13;;;;;;;30.45;13.30;;;;;;;;;;5059875;28;20121;-83
2024/02/29 08:23:39;;;;;;;30.13;12.43;;;;;;;;;;5076826;28;20036;-83
2024/02/29 08:26:09;;;;;;;29.25;11.68;;;;;;;;;;5066430;28;20540;-81
2024/02/29 08:28:37;;;;;;;31.42;13.25;;;;;;;;;;5058645;28;20036;-82
2024/02/29 08:31:03;;;;;;;26.95;10.98;;;;;;;;;;5060099;28;20059;-82
2024/02/29 08:33:29;;;;;;;30.90;12.77;;;;;;;;;;5058333;28;20032;-82
2024/02/29 08:35:56;;;;;;;30.38;12.48;;;;;;;;;;5061029;28;20020;-81
2024/02/29 08:38:22;;;;;;;30.10;13.52;;;;;;;;;;5062405;28;20027;-82
2024/02/29 08:40:49;;;;;;;25.55;11.52;;;;;;;;;;5058808;28;20028;-82
2024/02/29 08:43:15;;;;;;;25.73;11.48;;;;;;;;;;5067677;28;20044;-82
2024/02/29 08:45:41;;;;;;;24.83;10.48;;;;;;;;;;5066424;28;20288;-82
2024/02/29 08:48:07;;;;;;;28.50;12.02;;;;;;;;;;5064003;28;20083;-80
2024/02/29 08:50:33;;;;;;;28.70;11.82;;;;;;;;;;5066384;28;20028;-81
2024/02/29 08:52:59;;;;;;;26.08;11.23;;;;;;;;;;5070368;28;20122;-81
2024/02/29 08:55:25;;;;;;;25.35;11.07;;;;;;;;;;5054204;28;20394;-83
2024/02/29 08:57:51;;;;;;;26.10;11.88;;;;;;;;;;5053203;28;20047;-81
2024/02/29 09:00:18;;;;;;;27.25;11.43;;;;;;;;;;5072593;28;20029;-82
2024/02/29 09:02:44;;;;;;;24.65;11.20;;;;;;;;;;5056870;28;20025;-81
2024/02/29 09:05:10;;;;;;;23.50;11.25;;;;;;;;;;5054792;28;20051;-81
2024/02/29 09:07:36;;;;;;;23.33;10.98;;;;;;;;;;5058244;28;20028;-84
2024/02/29 09:10:02;;;;;;;22.70;9.98;;;;;;;;;;5058519;28;20017;-83
2024/02/29 09:12:28;;;;;;;22.92;10.27;;;;;;;;;;5065056;28;20035;-81
2024/02/29 09:14:54;;;;;;;23.70;10.43;;;;;;;;;;5067620;28;20028;-84
2024/02/29 09:17:20;;;;;;;24.42;10.02;;;3.50;99.90;;;;;;5051607;28;20029;-81
2024/02/29 09:19:46;;;;;;;24.20;10.82;;;;;;;;;;5073519;28;20029;-82
2024/02/29 09:22:12;;;;;;;22.55;10.55;;;3.50;99.90;;;;;;5057237;28;20098;-81
2024/02/29 09:24:38;;;;;;;21.45;10.13;;;;;;;;;;5053665;28;20021;-85
2024/02/29 09:27:04;;;;;;;22.60;10.57;;;3.70;99.90;;;;;;5062698;28;20024;-83
2024/02/29 09:29:30;;;;;;;23.67;10.15;;;;;;;;;;5061447;28;20021;-86
2024/02/29 09:31:56;;;;;;;21.85;9.82;;;;;;;;;;5070831;28;20063;-86
2024/02/29 09:34:22;;;;;;;18.67;9.63;;;;;;;;;;5077335;28;20040;-85
2024/02/29 09:36:48;;;;;;;23.42;10.45;;;;;;;;;;5078757;28;20009;-85
2024/02/29 09:39:14;;;;;;;21.23;10.93;;;;;;;;;;5068575;28;20049;-84
2024/02/29 09:41:40;;;;;;;19.63;10.07;;;;;;;;;;5078951;28;20025;-84
2024/02/29 09:44:06;;;;;;;18.95;9.43;;;;;;;;;;5066983;28;20045;-81
2024/02/29 09:46:32;;;;;;;18.92;9.77;;;;;;;;;;5077696;28;20023;-82
2024/02/29 09:48:58;;;;;;;19.67;9.30;;;;;;;;;;5046348;28;20033;-84
2024/02/29 09:51:25;;;;;;;16.90;8.85;;;;;;;;;;5060019;28;20035;-86
2024/02/29 09:53:53;;;;;;;19.35;9.80;;;4.20;99.90;;;;;;5064371;28;20040;-82
2024/02/29 09:56:23;;;;;;;18.38;9.40;;;4.20;99.90;;;;;;5060268;28;20025;-82
2024/02/29 09:58:53;;;;;;;16.23;7.90;;;;;;;;;;5080846;28;20029;-82
2024/02/29 10:01:18;;;;;;;18.60;8.93;;;4.20;99.90;;;;;;5048002;28;20028;-82
2024/02/29 10:03:46;;;;;;;16.65;8.20;;;4.30;99.90;;;;;;5072882;28;20555;-84
2024/02/29 10:06:12;;;;;;;17.42;8.80;;;;;;;;;;5067113;28;20128;-84
2024/02/29 10:08:39;;;;;;;18.77;9.73;;;;;;;;;;5075875;28;20455;-81
2024/02/29 10:11:05;;;;;;;15.93;8.23;;;;;;;;;;5062587;28;20037;-83
2024/02/29 10:13:41;;;;;;;14.23;7.93;;;4.60;99.90;;;;;;5076777;28;20063;-82
2024/02/29 10:16:11;;;;;;;15.10;7.72;;;;;;;;;;5057684;28;20029;-84
2024/02/29 10:18:38;;;;;;;15.60;7.57;;;4.70;99.90;;;;;;5070221;28;20025;-82
2024/02/29 10:21:11;;;;;;;18.98;9.15;;;4.60;99.90;;;;;;5060589;28;20025;-82
2024/02/29 10:23:37;;;;;;;15.18;7.70;;;;;;;;;;5059475;28;20056;-84
2024/02/29 10:26:04;;;;;;;15.93;8.57;;;;;;;;;;5077814;28;20020;-85
2024/02/29 10:28:30;;;;;;;13.23;7.00;;;;;;;;;;5073787;28;20020;-85
2024/02/29 10:30:58;;;;;;;11.88;6.40;;;;;;;;;;5082309;28;20032;-85
2024/02/29 10:33:28;;;;;;;12.75;6.90;;;5.20;99.90;;;;;;5061655;28;20047;-84
2024/02/29 10:35:54;;;;;;;14.25;7.40;;;;;;;;;;5060132;28;20037;-87
2024/02/29 10:38:23;;;;;;;13.63;6.80;;;5.40;99.90;;;;;;5071715;28;20042;-86
2024/02/29 10:40:51;;;;;;;13.07;7.03;;;5.30;99.90;;;;;;5066439;28;20083;-85
2024/02/29 10:43:22;;;;;;;12.27;6.85;;;5.70;99.90;;;;;;5055609;28;20048;-83
2024/02/29 10:45:50;;;;;;;14.10;7.30;;;5.70;99.90;;;;;;5075440;28;20024;-85
2024/02/29 10:48:39;;;;;;;11.48;6.13;;;6.00;99.90;;;;;;5071743;28;20033;-84
2024/02/29 10:51:10;;;;;;;10.82;6.43;;;6.10;99.90;;;;;;5070925;28;20029;-82
2024/02/29 10:53:37;;;;;;;12.38;6.45;;;;;;;;;;5063080;28;20029;-87
2024/02/29 10:56:19;;;;;;;12.73;6.85;;;6.40;99.90;;;;;;5056134;28;20098;-84
2024/02/29 10:58:50;;;;;;;12.75;6.97;;;6.40;99.90;;;;;;5056675;28;20029;-84
2024/02/29 11:01:17;;;;;;;13.23;6.65;;;;;;;;;;5055315;28;20044;-84
2024/02/29 11:03:46;;;;;;;12.85;6.70;;;6.50;99.90;;;;;;5076562;28;20025;-87
2024/02/29 11:06:12;;;;;;;11.10;6.68;;;7.20;99.90;;;;;;5065617;28;20781;-86
2024/02/29 11:08:39;;;;;;;13.23;6.60;;;;;;;;;;5063533;28;20021;-86
2024/02/29 11:11:11;;;;;;;14.40;7.00;;;;;;;;;;5076281;28;20024;-84
2024/02/29 11:13:37;;;;;;;15.52;7.72;;;;;;;;;;5055969;28;20029;-82
2024/02/29 11:16:09;;;;;;;14.73;7.47;;;7.00;99.90;;;;;;5073721;28;20107;-82
2024/02/29 11:18:37;;;;;;;14.05;7.75;;;;;;;;;;5073670;28;20051;-82
2024/02/29 11:21:05;;;;;;;11.65;6.50;;;7.40;99.90;;;;;;5063513;28;20481;-82
2024/02/29 11:23:38;;;;;;;12.23;7.13;;;7.50;99.90;;;;;;5065806;28;20032;-87
2024/02/29 11:26:10;;;;;;;13.60;8.00;;;7.60;99.90;;;;;;5055571;28;20048;-82
2024/02/29 11:28:40;;;;;;;12.57;7.55;;;7.80;99.90;;;;;;5050290;28;20039;-82
2024/02/29 11:31:17;;;;;;;13.27;7.90;;;7.90;99.90;;;;;;5051456;28;20021;-81
2024/02/29 11:33:44;;;;;;;13.38;7.85;;;8.10;99.90;;;;;;5069572;28;20025;-87
2024/02/29 11:36:12;;;;;;;12.68;8.18;;;8.10;99.90;;;;;;5054440;28;20021;-82
2024/02/29 11:38:39;;;;;;;12.88;7.88;;;8.30;99.90;;;;;;5054719;28;20028;-84
2024/02/29 11:41:20;;;;;;;14.52;8.30;;;8.00;99.90;;;;;;5074160;28;20036;-82
2024/02/29 11:43:47;;;;;;;14.52;8.60;;;8.00;99.90;;;;;;5059754;28;20037;-83
2024/02/29 11:46:13;;;;;;;14.82;8.00;;;9.00;99.90;;;;;;5060315;28;20029;-82
2024/02/29 11:48:40;;;;;;;13.48;8.05;;;7.90;99.90;;;;;;5078067;28;20025;-84
2024/02/29 11:51:08;;;;;;;13.88;9.07;;;8.10;99.90;;;;;;5065334;28;20025;-85
2024/02/29 11:53:35;;;;;;;15.43;8.88;;;8.10;99.90;;;;;;5073161;28;20178;-84
2024/02/29 11:56:04;;;;;;;16.30;8.48;;;8.00;99.90;;;;;;5057455;28;20052;-86
2024/02/29 11:58:31;;;;;;;15.43;9.32;;;8.10;99.90;;;;;;5046029;28;20041;-84
2024/02/29 12:00:58;;;;;;;15.43;8.60;;;8.60;99.90;;;;;;5057444;28;20032;-83
2024/02/29 12:03:24;;;;;;;15.05;8.63;;;9.70;99.90;;;;;;5058051;28;20040;-85
2024/02/29 12:05:51;;;;;;;15.95;8.70;;;8.40;99.90;;;;;;5078398;28;20120;-87
2024/02/29 12:08:17;;;;;;;14.88;8.15;;;8.60;99.90;;;;;;5077265;28;20069;-86
2024/02/29 12:10:47;;;;;;;17.40;9.80;;;10.60;99.90;;;;;;5068181;28;20062;-84
2024/02/29 12:13:14;;;;;;;14.48;9.23;;;8.80;99.90;;;;;;5061386;28;20013;-86
2024/02/29 12:15:40;;;;;;;11.73;7.90;;;8.90;99.90;;;;;;5071332;28;20029;-84
2024/02/29 12:18:10;;;;;;;16.55;8.93;;;9.20;99.90;;;;;;5072773;28;20223;-87
2024/02/29 12:20:37;;;;;;;16.33;9.00;;;8.80;99.90;;;;;;5083892;28;20026;-86
2024/02/29 12:23:03;;;;;;;13.25;8.20;;;8.80;99.90;;;;;;5071752;28;20045;-87
2024/02/29 12:25:29;;;;;;;14.07;8.38;;;8.90;99.90;;;;;;5085483;28;20051;-83
2024/02/29 12:27:55;;;;;;;15.98;9.70;;;8.90;99.90;;;;;;5067425;28;20119;-87
2024/02/29 12:30:25;;;;;;;14.80;9.05;;;8.80;99.90;;;;;;5074462;28;20105;-90
2024/02/29 12:32:53;;;;;;;15.02;8.82;;;9.10;99.90;;;;;;5069425;28;20020;-81
2024/02/29 12:35:20;;;;;;;15.68;8.68;;;8.20;99.90;;;;;;5061480;28;20060;-85
2024/02/29 12:37:46;;;;;;;14.82;8.30;;;9.10;99.90;;;;;;5062927;28;20078;-82
2024/02/29 12:40:16;;;;;;;15.95;8.65;;;8.90;99.90;;;;;;5059562;28;20032;-82
2024/02/29 12:42:46;;;;;;;13.95;8.15;;;9.40;99.90;;;;;;5067777;28;20037;-82
2024/02/29 12:45:12;;;;;;;14.63;8.77;;;9.60;99.90;;;;;;5053371;28;20127;-88
2024/02/29 12:47:40;;;;;;;14.23;8.48;;;9.60;99.90;;;;;;5054400;28;20041;-81
2024/02/29 12:50:12;;;;;;;14.23;8.23;;;8.70;99.90;;;;;;5064664;28;20659;-83
2024/02/29 12:52:39;;;;;;;12.98;8.25;;;9.60;99.90;;;;;;5075099;28;20032;-80
2024/02/29 12:55:06;;;;;;;12.27;8.05;;;9.80;99.90;;;;;;5073700;28;20025;-80
2024/02/29 12:57:32;;;;;;;13.15;8.07;;;9.90;99.90;;;;;;5045742;28;20348;-86
2024/02/29 12:59:58;;;;;;;12.43;7.38;;;8.30;99.90;;;;;;5056480;28;20025;-81
2024/02/29 13:02:24;;;;;;;11.10;7.25;;;10.10;99.90;;;;;;5056339;28;20043;-82
2024/02/29 14:28:06;;;;;;;12.00;6.13;;;11.60;99.90;;;;;;5029043;28;20053;-88
2024/02/29 16:01:02;;;;;;;14.13;7.20;;;11.30;99.90;;;;;;5105030;28;20040;-85
2024/02/29 16:03:34;;;;;;;13.60;6.90;;;11.30;99.90;;;;;;5086458;28;20032;-85
2024/02/29 16:06:00;;;;;;;10.15;6.63;;;11.30;99.90;;;;;;5088622;28;20023;-83
2024/02/29 16:08:29;;;;;;;10.73;6.25;;;11.40;99.90;;;;;;5078944;28;20024;-85
2024/02/29 16:10:55;;;;;;;9.70;6.30;;;11.30;99.90;;;;;;5085209;28;20024;-85
2024/02/29 16:13:21;;;;;;;11.27;6.70;;;11.40;99.90;;;;;;5067247;28;20054;-82
2024/02/29 16:15:49;;;;;;;13.07;8.52;;;11.20;99.90;;;;;;5095992;28;20028;-84
2024/02/29 16:18:15;;;;;;;11.18;6.75;;;11.20;99.90;;;;;;5080093;28;20020;-85
2024/02/29 16:20:41;;;;;;;14.35;8.73;;;11.10;99.90;;;;;;5087254;28;20044;-84
2024/02/29 16:23:06;;;;;;;14.48;8.63;;;11.00;99.90;;;;;;5084957;28;20494;-84
2024/02/29 16:25:32;;;;;;;13.00;7.18;;;11.00;99.90;;;;;;5087315;28;20134;-86
2024/02/29 16:27:58;;;;;;;11.32;7.30;;;11.10;99.90;;;;;;5086749;28;20025;-83
2024/02/29 16:30:23;;;;;;;15.45;8.20;;;11.00;99.90;;;;;;5086833;28;20220;-83
2024/02/29 16:32:49;;;;;;;22.02;15.00;;;10.80;99.90;;;;;;5068780;28;20024;-85
2024/02/29 16:35:15;;;;;;;15.13;10.02;;;10.70;99.90;;;;;;5068410;28;20032;-86
2024/02/29 16:37:40;;;;;;;11.60;7.47;;;10.60;99.90;;;;;;5084017;28;20026;-85
2024/02/29 16:40:07;;;;;;;16.25;9.45;;;10.80;99.90;;;;;;5068076;28;20020;-85
2024/02/29 16:42:33;;;;;;;14.98;9.15;;;10.60;99.90;;;;;;5069461;28;20036;-85
2024/02/29 16:44:58;;;;;;;14.07;7.75;;;11.20;99.90;;;;;;5067648;28;20103;-86
2024/02/29 16:47:25;;;;;;;11.20;7.22;;;10.60;99.90;;;;;;5064613;28;20115;-85
2024/02/29 16:49:50;;;;;;;12.07;7.85;;;10.50;99.90;;;;;;5082427;28;20080;-81
2024/02/29 16:52:16;;;;;;;18.00;10.75;;;10.50;99.90;;;;;;5081575;28;20024;-84
2024/02/29 16:54:57;;;;;;;11.15;8.13;;;10.40;99.90;;;;;;5067038;28;20021;-82
2024/02/29 16:57:46;;;;;;;13.48;8.02;;;10.60;99.90;;;;;;5079048;28;20052;-87
2024/02/29 17:00:22;;;;;;;;;;;;;;;;;;;;;
2024/02/29 17:03:25;;;;;;;;;;;;;;;;;;;;;
2024/02/29 17:06:25;;;;;;;;;;;;;;;;;;;;;
2024/02/29 17:08:57;;;;;;;16.02;9.38;;;10.00;99.90;;;;;;5076567;28;20112;-84
2024/02/29 17:12:14;;;;;;;;;;;;;;;;;;;;;
2024/02/29 17:15:58;;;;;;;18.77;11.45;;;9.80;99.90;;;;;;5077896;28;20029;-86
2024/02/29 17:18:20;;;;;;;25.00;14.80;;;9.70;99.90;;;;;;5080017;28;20040;-84
2024/02/29 17:24:54;;;;;;;;;;;;;;;;;;;;;
2024/02/29 17:28:28;;;;;;;21.65;10.88;;;8.30;99.90;;;;;;5038541;28;20117;-86
2024/02/29 17:31:25;;;;;;;20.30;10.98;;;9.70;99.90;;;;;;4966199;28;20039;-85
2024/02/29 17:35:33;;;;;;;18.40;10.40;;;10.20;99.90;;;;;;4965474;29;20039;-86
2024/02/29 17:38:11;;;;;;;;;;;;;;;;;;;;;
2024/02/29 17:41:11;;;;;;;13.00;7.20;;;9.60;99.90;;;;;;4937949;29;20055;-82
2024/02/29 17:43:40;;;;;;;12.93;7.07;;;9.50;99.90;;;;;;4922490;29;20039;-85
2024/02/29 17:46:09;;;;;;;9.95;6.38;;;9.80;99.90;;;;;;4958246;29;20067;-84
2024/02/29 17:48:35;;;;;;;12.57;6.70;;;9.50;99.90;;;;;;5020894;28;20029;-89
2024/02/29 17:51:01;;;;;;;12.07;7.55;;;9.60;99.90;;;;;;5042358;28;20036;-85
2024/02/29 17:53:26;;;;;;;12.18;6.57;;;8.50;99.90;;;;;;5083786;28;20033;-85
2024/02/29 17:55:52;;;;;;;12.55;6.85;;;10.20;99.90;;;;;;5084748;28;20088;-85
2024/02/29 17:58:18;;;;;;;11.73;6.60;;;9.40;99.90;;;;;;5065543;28;20036;-86
2024/02/29 18:00:43;;;;;;;9.40;6.03;;;9.30;99.90;;;;;;5073116;28;20469;-87
2024/02/29 18:03:09;;;;;;;10.77;6.38;;;9.20;99.90;;;;;;5080431;28;20474;-84
2024/02/29 18:05:38;;;;;;;13.98;5.95;;;9.20;99.90;;;;;;5081324;28;20366;-85
2024/02/29 18:08:04;;;;;;;9.57;6.63;;;9.00;99.90;;;;;;5079982;28;20124;-87
2024/02/29 18:10:29;;;;;;;16.85;7.20;;;7.50;99.90;;;;;;5036408;28;20123;-88
2024/02/29 18:12:56;;;;;;;14.77;6.45;;;9.20;99.90;;;;;;5064484;28;20119;-84
2024/02/29 18:15:22;;;;;;;15.82;8.07;;;10.60;99.90;;;;;;5090208;28;20035;-87
2024/02/29 18:17:50;;;;;;;11.98;7.05;;;8.80;99.90;;;;;;5088556;28;20036;-85
2024/02/29 18:20:17;;;;;;;13.18;7.65;;;8.90;99.90;;;;;;5085109;28;20048;-86
2024/02/29 18:22:43;;;;;;;11.00;6.97;;;8.70;99.90;;;;;;5083020;28;20112;-83
2024/02/29 18:25:08;;;;;;;11.15;6.47;;;8.60;99.90;;;;;;5083888;28;20036;-83
2024/02/29 18:27:35;;;;;;;10.63;6.50;;;8.60;99.90;;;;;;5083978;28;20029;-87
2024/02/29 18:30:04;;;;;;;10.20;6.38;;;9.80;99.90;;;;;;5065991;28;20032;-84
2024/02/29 18:32:31;;;;;;;13.02;6.20;;;8.50;99.90;;;;;;5083458;28;20028;-87
2024/02/29 18:34:56;;;;;;;11.60;6.55;;;8.50;99.90;;;;;;5064841;28;20031;-84
2024/02/29 18:37:24;;;;;;;11.32;7.00;;;8.40;99.90;;;;;;5065000;28;20020;-86
2024/02/29 18:39:50;;;;;;;12.57;7.97;;;8.40;99.90;;;;;;5080830;28;20049;-89
2024/02/29 18:42:16;;;;;;;12.85;7.38;;;8.40;99.90;;;;;;5048053;28;20096;-88
2024/02/29 18:44:42;;;;;;;18.88;10.65;;;10.30;99.90;;;;;;5081705;28;20074;-86
2024/02/29 18:47:07;;;;;;;11.70;7.05;;;8.40;99.90;;;;;;5081943;28;20140;-87
2024/02/29 18:49:33;;;;;;;10.43;6.80;;;8.80;99.90;;;;;;5083319;28;20031;-86
2024/02/29 18:51:59;;;;;;;10.88;6.47;;;8.20;99.90;;;;;;5080451;28;20029;-85
2024/02/29 18:54:24;;;;;;;11.52;6.95;;;8.30;99.90;;;;;;5059877;28;20044;-86
2024/02/29 18:56:50;;;;;;;13.68;7.20;;;8.10;99.90;;;;;;5088195;28;20020;-85
2024/02/29 18:59:16;;;;;;;12.60;7.00;;;8.00;99.90;;;;;;5092362;28;20036;-87
2024/02/29 19:01:43;;;;;;;11.18;6.55;;;8.00;99.90;;;;;;5062254;28;20017;-83
2024/02/29 19:04:17;;;;;;;12.70;7.45;;;7.90;99.90;;;;;;5092750;28;20062;-87
2024/02/29 19:06:49;;;;;;;14.25;8.57;;;7.90;99.90;;;;;;5092405;28;20013;-85
2024/02/29 19:09:17;;;;;;;15.65;9.57;;;7.90;99.90;;;;;;5057488;28;20064;-86
2024/02/29 19:11:58;;;;;;;12.38;7.65;;;7.80;99.90;;;;;;5071303;28;20056;-88
2024/02/29 19:14:47;;;;;;;15.65;8.35;;;7.90;99.90;;;;;;5072210;28;20033;-83
2024/02/29 19:17:51;;;;;;;;;;;;;;;;;;;;;
2024/02/29 19:20:33;;;;;;;;;;;;;;;;;;;;;
2024/02/29 19:23:30;;;;;;;12.77;7.20;;;7.20;99.90;;;;;;5081502;28;20092;-87
2024/02/29 19:26:12;;;;;;;14.00;7.78;;;7.60;99.90;;;;;;5079755;28;20021;-86
2024/02/29 19:29:03;;;;;;;15.25;7.43;;;8.60;99.90;;;;;;5074418;28;20013;-86
2024/02/29 19:31:32;;;;;;;15.93;8.35;;;7.30;99.90;;;;;;5032522;28;20074;-86
2024/02/29 19:34:24;;;;;;;18.50;9.25;;;7.30;99.90;;;;;;5084369;28;20138;-85
2024/02/29 19:37:29;;;;;;;;;;;;;;;;;;;;;